EJA259 KLAX-KSJC
Flight info
| Callsign | EJA259 |
|---|---|
| Flight time | 0h 50m |
| Altitude | 38000 |
| Route | SUMMR2 SCTRR TROXX SILCN6 |
| Aircraft | CL60/M-SBDE1E2E3FGHIJ1J4J5J7M3RWXYZ/LB1V1D1 |
Departure
| Time | 2026-04-21 21:52 |
|---|---|
| Airport | Los Angeles International Airport (KLAX) |
Arrival
| Time | 2026-04-21 22:42 |
|---|---|
| Airport | Norman Y. Mineta San Jose International Airport (KSJC) |
| Time | Latitude | Longitude | Altitude | Speed | Heading |
|---|---|---|---|---|---|
| 2026-04-21 21:12 | 33.93292 | -118.39925 | 123 ft | 0 kts | 105° |
| 2026-04-21 21:42 | 33.93291 | -118.39922 | 123 ft | 2 kts | 105° |
| 2026-04-21 21:42 | 33.93288 | -118.39909 | 123 ft | 1 kts | 99° |
| 2026-04-21 21:42 | 33.93288 | -118.39904 | 123 ft | 0 kts | 79° |
| 2026-04-21 21:42 | 33.93291 | -118.39896 | 123 ft | 0 kts | 55° |
| 2026-04-21 21:43 | 33.93295 | -118.39891 | 123 ft | 3 kts | 48° |
| 2026-04-21 21:43 | 33.93334 | -118.39875 | 122 ft | 8 kts | 20° |
| 2026-04-21 21:44 | 33.93383 | -118.39813 | 120 ft | 12 kts | 12° |
| 2026-04-21 21:44 | 33.93455 | -118.39807 | 118 ft | 9 kts | 58° |
| 2026-04-21 21:44 | 33.93467 | -118.39703 | 117 ft | 15 kts | 83° |
| 2026-04-21 21:44 | 33.93482 | -118.39557 | 113 ft | 20 kts | 82° |
| 2026-04-21 21:45 | 33.93502 | -118.39366 | 110 ft | 25 kts | 83° |
| 2026-04-21 21:45 | 33.93521 | -118.39182 | 109 ft | 19 kts | 83° |
| 2026-04-21 21:45 | 33.93539 | -118.39002 | 108 ft | 23 kts | 84° |
| 2026-04-21 21:45 | 33.93559 | -118.38806 | 107 ft | 20 kts | 83° |
| 2026-04-21 21:46 | 33.93577 | -118.38624 | 106 ft | 23 kts | 83° |
| 2026-04-21 21:46 | 33.93599 | -118.38412 | 105 ft | 22 kts | 83° |
| 2026-04-21 21:46 | 33.93621 | -118.38287 | 104 ft | 7 kts | 49° |
| 2026-04-21 21:46 | 33.93649 | -118.38277 | 104 ft | 0 kts | 352° |
| 2026-04-21 21:49 | 33.93657 | -118.38278 | 104 ft | 4 kts | 352° |
| 2026-04-21 21:49 | 33.93707 | -118.38285 | 104 ft | 9 kts | 353° |
| 2026-04-21 21:50 | 33.93732 | -118.38315 | 104 ft | 5 kts | 260° |
| 2026-04-21 21:50 | 33.93732 | -118.38322 | 104 ft | 0 kts | 264° |
| 2026-04-21 21:51 | 33.93729 | -118.38349 | 104 ft | 21 kts | 263° |
| 2026-04-21 21:51 | 33.93664 | -118.38992 | 109 ft | 130 kts | 263° |
| 2026-04-21 21:51 | 33.93539 | -118.40300 | 621 ft | 172 kts | 260° |
| 2026-04-21 21:52 | 33.93397 | -118.41734 | 1554 ft | 173 kts | 262° |
| 2026-04-21 21:52 | 33.93248 | -118.43148 | 2174 ft | 174 kts | 262° |
| 2026-04-21 21:52 | 33.93077 | -118.44739 | 2680 ft | 215 kts | 262° |
| 2026-04-21 21:52 | 33.92943 | -118.46639 | 3004 ft | 235 kts | 267° |
| 2026-04-21 21:53 | 33.92876 | -118.48608 | 3352 ft | 234 kts | 267° |
| 2026-04-21 21:53 | 33.92770 | -118.50596 | 3746 ft | 246 kts | 264° |
| 2026-04-21 21:53 | 33.92598 | -118.52661 | 4349 ft | 252 kts | 264° |
| 2026-04-21 21:53 | 33.92422 | -118.54781 | 4974 ft | 257 kts | 263° |
| 2026-04-21 21:54 | 33.92245 | -118.56921 | 5608 ft | 258 kts | 263° |
| 2026-04-21 21:54 | 33.92068 | -118.59049 | 6460 ft | 255 kts | 262° |
| 2026-04-21 21:54 | 33.91892 | -118.61166 | 7359 ft | 260 kts | 262° |
| 2026-04-21 21:54 | 33.91765 | -118.63330 | 8257 ft | 264 kts | 266° |
| 2026-04-21 21:55 | 33.91753 | -118.65529 | 9165 ft | 264 kts | 266° |
| 2026-04-21 21:55 | 33.91745 | -118.67744 | 10073 ft | 265 kts | 266° |
| 2026-04-21 21:55 | 33.91735 | -118.69944 | 10911 ft | 275 kts | 266° |
| 2026-04-21 21:55 | 33.91719 | -118.72335 | 11606 ft | 301 kts | 266° |
| 2026-04-21 21:56 | 33.91703 | -118.74964 | 12196 ft | 322 kts | 266° |
| 2026-04-21 21:56 | 33.91693 | -118.77615 | 13506 ft | 321 kts | 267° |
| 2026-04-21 21:56 | 33.91682 | -118.80240 | 14861 ft | 318 kts | 266° |
| 2026-04-21 21:56 | 33.91678 | -118.82863 | 16111 ft | 319 kts | 267° |
| 2026-04-21 21:57 | 33.91745 | -118.85521 | 17210 ft | 321 kts | 268° |
| 2026-04-21 21:57 | 33.91824 | -118.88208 | 18218 ft | 324 kts | 268° |
| 2026-04-21 21:57 | 33.91902 | -118.90895 | 19163 ft | 327 kts | 268° |
| 2026-04-21 21:57 | 33.91981 | -118.93629 | 20044 ft | 332 kts | 268° |
| 2026-04-21 21:58 | 33.92061 | -118.96403 | 20949 ft | 334 kts | 268° |
| 2026-04-21 21:58 | 33.92145 | -118.99193 | 21782 ft | 338 kts | 269° |
| 2026-04-21 21:58 | 33.92592 | -119.02004 | 22595 ft | 351 kts | 283° |
| 2026-04-21 21:58 | 33.93731 | -119.04636 | 23350 ft | 364 kts | 294° |
| 2026-04-21 21:59 | 33.95078 | -119.07233 | 24092 ft | 369 kts | 294° |
| 2026-04-21 21:59 | 33.96440 | -119.09872 | 24824 ft | 372 kts | 293° |
| 2026-04-21 21:59 | 33.97814 | -119.12538 | 25473 ft | 378 kts | 293° |
| 2026-04-21 21:59 | 33.99213 | -119.15253 | 26190 ft | 381 kts | 293° |
| 2026-04-21 22:00 | 34.00708 | -119.17893 | 26860 ft | 391 kts | 300° |
| 2026-04-21 22:00 | 34.02752 | -119.20180 | 27558 ft | 409 kts | 313° |
| 2026-04-21 22:00 | 34.05071 | -119.22173 | 28339 ft | 409 kts | 314° |
| 2026-04-21 22:00 | 34.07371 | -119.24141 | 29169 ft | 406 kts | 314° |
| 2026-04-21 22:01 | 34.09667 | -119.26112 | 29935 ft | 403 kts | 313° |
| 2026-04-21 22:01 | 34.11934 | -119.28059 | 30695 ft | 399 kts | 313° |
| 2026-04-21 22:01 | 34.14185 | -119.29990 | 31478 ft | 393 kts | 313° |
| 2026-04-21 22:01 | 34.16410 | -119.31904 | 32177 ft | 389 kts | 312° |
| 2026-04-21 22:02 | 34.18585 | -119.33776 | 32834 ft | 385 kts | 313° |
| 2026-04-21 22:02 | 34.20747 | -119.35636 | 33576 ft | 378 kts | 312° |
| 2026-04-21 22:02 | 34.22880 | -119.37474 | 34177 ft | 374 kts | 312° |
| 2026-04-21 22:02 | 34.24995 | -119.39302 | 34670 ft | 373 kts | 312° |
| 2026-04-21 22:03 | 34.27082 | -119.41110 | 34927 ft | 373 kts | 312° |
| 2026-04-21 22:03 | 34.29225 | -119.42966 | 35221 ft | 376 kts | 312° |
| 2026-04-21 22:03 | 34.31344 | -119.44805 | 35487 ft | 378 kts | 313° |
| 2026-04-21 22:03 | 34.33482 | -119.46659 | 35817 ft | 379 kts | 313° |
| 2026-04-21 22:04 | 34.35636 | -119.48526 | 36264 ft | 378 kts | 313° |
| 2026-04-21 22:04 | 34.37780 | -119.50384 | 36723 ft | 376 kts | 313° |
| 2026-04-21 22:04 | 34.39886 | -119.52212 | 37084 ft | 376 kts | 313° |
| 2026-04-21 22:04 | 34.41996 | -119.54104 | 37465 ft | 373 kts | 311° |
| 2026-04-21 22:05 | 34.44043 | -119.56031 | 37720 ft | 375 kts | 311° |
| 2026-04-21 22:05 | 34.46125 | -119.57995 | 37976 ft | 377 kts | 311° |
| 2026-04-21 22:05 | 34.48199 | -119.59954 | 38073 ft | 382 kts | 311° |
| 2026-04-21 22:06 | 34.52482 | -119.64005 | 38069 ft | 396 kts | 312° |
| 2026-04-21 22:06 | 34.56921 | -119.68206 | 38075 ft | 410 kts | 311° |
| 2026-04-21 22:07 | 34.61462 | -119.72495 | 38062 ft | 419 kts | 312° |
| 2026-04-21 22:07 | 34.66112 | -119.76894 | 38048 ft | 421 kts | 312° |
| 2026-04-21 22:08 | 34.70713 | -119.81255 | 38065 ft | 421 kts | 312° |
| 2026-04-21 22:08 | 34.75350 | -119.85651 | 38046 ft | 421 kts | 312° |
| 2026-04-21 22:09 | 34.79976 | -119.90045 | 38051 ft | 420 kts | 312° |
| 2026-04-21 22:09 | 34.84564 | -119.94417 | 38032 ft | 419 kts | 312° |
| 2026-04-21 22:10 | 34.89144 | -119.98785 | 38030 ft | 419 kts | 312° |
| 2026-04-21 22:10 | 34.93724 | -120.03159 | 38024 ft | 419 kts | 312° |
| 2026-04-21 22:11 | 34.98319 | -120.07552 | 38037 ft | 419 kts | 312° |
| 2026-04-21 22:11 | 35.02904 | -120.11945 | 38051 ft | 420 kts | 312° |
| 2026-04-21 22:12 | 35.07502 | -120.16355 | 38043 ft | 420 kts | 312° |
| 2026-04-21 22:12 | 35.12094 | -120.20763 | 38043 ft | 419 kts | 311° |
| 2026-04-21 22:13 | 35.16678 | -120.25177 | 38044 ft | 419 kts | 312° |
| 2026-04-21 22:13 | 35.21360 | -120.29493 | 38055 ft | 421 kts | 314° |
| 2026-04-21 22:14 | 35.26042 | -120.33763 | 38043 ft | 421 kts | 313° |
| 2026-04-21 22:14 | 35.30717 | -120.38055 | 38048 ft | 421 kts | 313° |
| 2026-04-21 22:15 | 35.35412 | -120.42350 | 38057 ft | 423 kts | 313° |
| 2026-04-21 22:15 | 35.40141 | -120.46697 | 38046 ft | 423 kts | 313° |
| 2026-04-21 22:16 | 35.44863 | -120.51038 | 38039 ft | 424 kts | 313° |
| 2026-04-21 22:16 | 35.49564 | -120.55366 | 38060 ft | 425 kts | 313° |
| 2026-04-21 22:17 | 35.54353 | -120.59620 | 38066 ft | 430 kts | 317° |
| 2026-04-21 22:17 | 35.59449 | -120.63545 | 38038 ft | 431 kts | 317° |
| 2026-04-21 22:18 | 35.64522 | -120.67542 | 38097 ft | 431 kts | 317° |
| 2026-04-21 22:18 | 35.67038 | -120.69509 | 37767 ft | 426 kts | 317° |
| 2026-04-21 22:18 | 35.69516 | -120.71439 | 37243 ft | 422 kts | 317° |
| 2026-04-21 22:18 | 35.71992 | -120.73378 | 36705 ft | 418 kts | 316° |
| 2026-04-21 22:19 | 35.74402 | -120.75277 | 36149 ft | 413 kts | 316° |
| 2026-04-21 22:19 | 35.76810 | -120.77174 | 35635 ft | 408 kts | 316° |
| 2026-04-21 22:19 | 35.78546 | -120.78539 | 35267 ft | 405 kts | 316° |
| 2026-04-21 22:20 | 35.79889 | -120.79678 | 34902 ft | 401 kts | 313° |
| 2026-04-21 22:20 | 35.82226 | -120.81663 | 34280 ft | 407 kts | 317° |
| 2026-04-21 22:20 | 35.84628 | -120.83469 | 33880 ft | 404 kts | 317° |
| 2026-04-21 22:20 | 35.87007 | -120.85252 | 33212 ft | 403 kts | 317° |
| 2026-04-21 22:21 | 35.89351 | -120.87071 | 32803 ft | 395 kts | 315° |
| 2026-04-21 22:21 | 35.91665 | -120.88917 | 32191 ft | 393 kts | 315° |
| 2026-04-21 22:21 | 35.93934 | -120.90717 | 31740 ft | 389 kts | 315° |
| 2026-04-21 22:21 | 35.96215 | -120.92510 | 31174 ft | 386 kts | 315° |
| 2026-04-21 22:22 | 35.98460 | -120.94280 | 30707 ft | 386 kts | 315° |
| 2026-04-21 22:22 | 36.00713 | -120.96090 | 30165 ft | 386 kts | 313° |
| 2026-04-21 22:22 | 36.02846 | -120.98035 | 29680 ft | 378 kts | 309° |
| 2026-04-21 22:22 | 36.04914 | -121.00044 | 29163 ft | 379 kts | 310° |
| 2026-04-21 22:23 | 36.06994 | -121.02028 | 28668 ft | 382 kts | 311° |
| 2026-04-21 22:23 | 36.09091 | -121.04006 | 28162 ft | 383 kts | 310° |
| 2026-04-21 22:23 | 36.11221 | -121.06023 | 27641 ft | 382 kts | 311° |
| 2026-04-21 22:23 | 36.13325 | -121.08031 | 27122 ft | 380 kts | 311° |
| 2026-04-21 22:24 | 36.15422 | -121.10031 | 26644 ft | 377 kts | 311° |
| 2026-04-21 22:24 | 36.17495 | -121.12003 | 26132 ft | 373 kts | 311° |
| 2026-04-21 22:24 | 36.19533 | -121.13941 | 25646 ft | 370 kts | 312° |
| 2026-04-21 22:24 | 36.21571 | -121.15883 | 25140 ft | 367 kts | 312° |
| 2026-04-21 22:25 | 36.23560 | -121.17781 | 24679 ft | 365 kts | 311° |
| 2026-04-21 22:25 | 36.25581 | -121.19717 | 24192 ft | 365 kts | 313° |
| 2026-04-21 22:25 | 36.27589 | -121.21641 | 23702 ft | 364 kts | 313° |
| 2026-04-21 22:25 | 36.29595 | -121.23563 | 23183 ft | 364 kts | 313° |
| 2026-04-21 22:26 | 36.31593 | -121.25476 | 22756 ft | 365 kts | 313° |
| 2026-04-21 22:26 | 36.33604 | -121.27405 | 22225 ft | 366 kts | 314° |
| 2026-04-21 22:26 | 36.35614 | -121.29330 | 21753 ft | 365 kts | 314° |
| 2026-04-21 22:26 | 36.37618 | -121.31255 | 21263 ft | 363 kts | 315° |
| 2026-04-21 22:27 | 36.39585 | -121.33148 | 20816 ft | 361 kts | 315° |
| 2026-04-21 22:27 | 36.41558 | -121.35053 | 20326 ft | 360 kts | 314° |
| 2026-04-21 22:27 | 36.43527 | -121.36953 | 19850 ft | 359 kts | 315° |
| 2026-04-21 22:27 | 36.45495 | -121.38855 | 19364 ft | 359 kts | 315° |
| 2026-04-21 22:28 | 36.47460 | -121.40751 | 18909 ft | 358 kts | 316° |
| 2026-04-21 22:28 | 36.49439 | -121.42602 | 18435 ft | 360 kts | 321° |
| 2026-04-21 22:28 | 36.51742 | -121.43913 | 17974 ft | 368 kts | 336° |
| 2026-04-21 22:28 | 36.54171 | -121.44885 | 17450 ft | 367 kts | 336° |
| 2026-04-21 22:29 | 36.56598 | -121.45900 | 16991 ft | 364 kts | 336° |
| 2026-04-21 22:29 | 36.59004 | -121.46933 | 16483 ft | 363 kts | 336° |
| 2026-04-21 22:29 | 36.61379 | -121.47937 | 16003 ft | 361 kts | 336° |
| 2026-04-21 22:29 | 36.63754 | -121.48930 | 15541 ft | 358 kts | 337° |
| 2026-04-21 22:30 | 36.66094 | -121.49913 | 15060 ft | 356 kts | 337° |
| 2026-04-21 22:30 | 36.68441 | -121.50907 | 14597 ft | 353 kts | 337° |
| 2026-04-21 22:30 | 36.70746 | -121.51887 | 14121 ft | 352 kts | 337° |
| 2026-04-21 22:30 | 36.73048 | -121.52863 | 13655 ft | 349 kts | 337° |
| 2026-04-21 22:31 | 36.75335 | -121.53831 | 13198 ft | 344 kts | 337° |
| 2026-04-21 22:31 | 36.77580 | -121.54778 | 12755 ft | 338 kts | 338° |
| 2026-04-21 22:31 | 36.79792 | -121.55712 | 12321 ft | 332 kts | 337° |
| 2026-04-21 22:31 | 36.81947 | -121.56628 | 11875 ft | 326 kts | 338° |
| 2026-04-21 22:32 | 36.84093 | -121.57542 | 11435 ft | 321 kts | 338° |
| 2026-04-21 22:32 | 36.86204 | -121.58441 | 11019 ft | 315 kts | 338° |
| 2026-04-21 22:32 | 36.88256 | -121.59314 | 10609 ft | 311 kts | 338° |
| 2026-04-21 22:32 | 36.90284 | -121.60176 | 10193 ft | 307 kts | 337° |
| 2026-04-21 22:33 | 36.92314 | -121.61040 | 9771 ft | 302 kts | 338° |
| 2026-04-21 22:33 | 36.94282 | -121.61875 | 9407 ft | 297 kts | 338° |
| 2026-04-21 22:33 | 36.96236 | -121.62703 | 8971 ft | 294 kts | 337° |
| 2026-04-21 22:33 | 36.98154 | -121.63532 | 8674 ft | 288 kts | 337° |
| 2026-04-21 22:34 | 37.00041 | -121.64359 | 8327 ft | 287 kts | 337° |
| 2026-04-21 22:34 | 37.01946 | -121.65198 | 8006 ft | 287 kts | 336° |
| 2026-04-21 22:34 | 37.03818 | -121.66031 | 7691 ft | 285 kts | 336° |
| 2026-04-21 22:34 | 37.05688 | -121.66859 | 7357 ft | 282 kts | 336° |
| 2026-04-21 22:35 | 37.07557 | -121.67688 | 6730 ft | 288 kts | 336° |
| 2026-04-21 22:35 | 37.09454 | -121.68536 | 6183 ft | 289 kts | 337° |
| 2026-04-21 22:35 | 37.11347 | -121.69337 | 5825 ft | 283 kts | 339° |
| 2026-04-21 22:35 | 37.13229 | -121.70087 | 5341 ft | 274 kts | 339° |
| 2026-04-21 22:36 | 37.16622 | -121.71554 | 4735 ft | 247 kts | 324° |
| 2026-04-21 22:36 | 37.17914 | -121.72892 | 4456 ft | 237 kts | 313° |
| 2026-04-21 22:36 | 37.19140 | -121.74275 | 4086 ft | 234 kts | 315° |
| 2026-04-21 22:37 | 37.20335 | -121.75561 | 3826 ft | 218 kts | 315° |
| 2026-04-21 22:37 | 37.21441 | -121.76776 | 3595 ft | 203 kts | 314° |
| 2026-04-21 22:37 | 37.22470 | -121.77901 | 3360 ft | 192 kts | 314° |
| 2026-04-21 22:37 | 37.23453 | -121.78974 | 3168 ft | 180 kts | 314° |
| 2026-04-21 22:38 | 37.24364 | -121.79967 | 2983 ft | 169 kts | 314° |
| 2026-04-21 22:38 | 37.25244 | -121.80930 | 2755 ft | 164 kts | 314° |
| 2026-04-21 22:38 | 37.26102 | -121.81870 | 2539 ft | 163 kts | 314° |
| 2026-04-21 22:38 | 37.26938 | -121.82780 | 2298 ft | 151 kts | 314° |
| 2026-04-21 22:39 | 37.27694 | -121.83600 | 2141 ft | 143 kts | 313° |
| 2026-04-21 22:39 | 37.28443 | -121.84424 | 1933 ft | 140 kts | 313° |
| 2026-04-21 22:39 | 37.29167 | -121.85216 | 1790 ft | 133 kts | 313° |
| 2026-04-21 22:39 | 37.29865 | -121.85977 | 1589 ft | 131 kts | 313° |
| 2026-04-21 22:40 | 37.30532 | -121.86732 | 1389 ft | 128 kts | 311° |
| 2026-04-21 22:40 | 37.31198 | -121.87472 | 1232 ft | 129 kts | 315° |
| 2026-04-21 22:40 | 37.31883 | -121.88197 | 1079 ft | 128 kts | 313° |
| 2026-04-21 22:40 | 37.32565 | -121.88947 | 895 ft | 131 kts | 315° |
| 2026-04-21 22:41 | 37.33254 | -121.89685 | 718 ft | 131 kts | 316° |
| 2026-04-21 22:41 | 37.33938 | -121.90436 | 547 ft | 129 kts | 314° |
| 2026-04-21 22:41 | 37.34616 | -121.91179 | 374 ft | 127 kts | 316° |
| 2026-04-21 22:41 | 37.35280 | -121.91904 | 219 ft | 128 kts | 316° |
| 2026-04-21 22:42 | 37.35955 | -121.92643 | 72 ft | 120 kts | 316° |
| 2026-04-21 22:42 | 37.36491 | -121.93233 | 69 ft | 78 kts | 319° |
| 2026-04-21 22:42 | 37.36810 | -121.93583 | 69 ft | 49 kts | 319° |
| 2026-04-21 22:42 | 37.37023 | -121.93816 | 69 ft | 24 kts | 319° |
| 2026-04-21 22:43 | 37.37065 | -121.93935 | 69 ft | 13 kts | 240° |
| 2026-04-21 22:43 | 37.37014 | -121.93984 | 69 ft | 9 kts | 155° |
| 2026-04-21 22:43 | 37.36953 | -121.93922 | 69 ft | 13 kts | 138° |
| 2026-04-21 22:43 | 37.36873 | -121.93835 | 69 ft | 14 kts | 139° |
| 2026-04-21 22:44 | 37.36797 | -121.93752 | 69 ft | 16 kts | 139° |
| 2026-04-21 22:44 | 37.36702 | -121.93649 | 69 ft | 19 kts | 136° |
| 2026-04-21 22:44 | 37.36636 | -121.93582 | 69 ft | 4 kts | 195° |
| 2026-04-21 22:44 | 37.36604 | -121.93627 | 69 ft | 8 kts | 230° |
| 2026-04-21 22:45 | 37.36556 | -121.93696 | 69 ft | 7 kts | 225° |
| 2026-04-21 22:45 | 37.36503 | -121.93673 | 69 ft | 11 kts | 138° |
| 2026-04-21 22:45 | 37.36460 | -121.93663 | 69 ft | 8 kts | 231° |
| 2026-04-21 22:45 | 37.36448 | -121.93720 | 69 ft | 8 kts | 318° |
| 2026-04-21 22:46 | 37.36498 | -121.93765 | 69 ft | 7 kts | 314° |
| 2026-04-21 22:46 | 37.36491 | -121.93803 | 69 ft | 6 kts | 225° |
| 2026-04-21 22:46 | 37.36446 | -121.93804 | 69 ft | 4 kts | 159° |
| 2026-04-21 22:46 | 37.36443 | -121.93790 | 69 ft | 0 kts | 66° |